Time;durP1;ratioP1;P1;durP2;ratioP2;P2;SDS_P1;SDS_P2;PMS_P1;PMS_P2;Temp;Humidity;BMP_temperature;BMP_pressure;BME280_temperature;BME280_humidity;BME280_pressure;Samples;Min_cycle;Max_cycle;Signal;HPM_P1;HPM_P2
2023/03/09 00:01:45;;;;;;;0.00;0.00;;;1.90;77.40;;;;;;5137063;27;20478;-83
2023/03/09 00:04:15;;;;;;;0.05;0.00;;;1.80;78.00;;;;;;5103261;27;20039;-82
2023/03/09 00:06:42;;;;;;;0.45;0.45;;;1.90;78.00;;;;;;5103085;27;20051;-82
2023/03/09 00:09:08;;;;;;;0.82;0.68;;;1.90;78.10;;;;;;5136888;27;20054;-82
2023/03/09 00:11:34;;;;;;;0.10;0.10;;;1.80;78.60;;;;;;5136680;27;20043;-82
2023/03/09 00:14:00;;;;;;;0.10;0.05;;;1.90;79.50;;;;;;5103252;27;20496;-82
2023/03/09 00:16:29;;;;;;;0.25;0.25;;;1.80;80.50;;;;;;5119834;27;20042;-83
2023/03/09 00:18:57;;;;;;;0.35;0.35;;;1.80;80.60;;;;;;5136379;27;20058;-83
2023/03/09 00:21:37;;;;;;;0.55;0.28;;;1.80;81.70;;;;;;5120327;27;20078;-82
2023/03/09 00:24:14;;;;;;;0.15;0.10;;;1.80;82.00;;;;;;5136989;27;20486;-83
2023/03/09 00:26:42;;;;;;;0.15;0.15;;;1.80;83.50;;;;;;5136805;27;20047;-83
2023/03/09 00:29:11;;;;;;;0.98;0.43;;;1.80;83.50;;;;;;5136860;27;20088;-83
2023/03/09 00:31:37;;;;;;;1.35;0.17;;;1.80;84.60;;;;;;5119565;27;20540;-83
2023/03/09 00:34:03;;;;;;;0.10;0.08;;;1.80;85.90;;;;;;5102866;27;20133;-83
2023/03/09 00:36:29;;;;;;;0.22;0.22;;;1.80;85.90;;;;;;5136872;27;20085;-83
2023/03/09 00:38:56;;;;;;;0.50;0.50;;;1.70;89.90;;;;;;5136538;27;20092;-83
2023/03/09 00:41:23;;;;;;;0.15;0.15;;;1.70;91.50;;;;;;5119325;27;20096;-83
2023/03/09 00:43:49;;;;;;;0.17;0.00;;;1.60;90.50;;;;;;5136746;27;20051;-83
2023/03/09 00:46:16;;;;;;;0.20;0.20;;;1.60;92.40;;;;;;5136940;27;20065;-82
2023/03/09 00:48:42;;;;;;;0.60;0.57;;;1.60;92.60;;;;;;5136089;27;20138;-83
2023/03/09 00:51:09;;;;;;;0.30;0.30;;;1.60;93.10;;;;;;5119274;27;20490;-82
2023/03/09 00:53:35;;;;;;;0.10;0.00;;;1.50;93.70;;;;;;5119328;27;20107;-83
2023/03/09 00:56:12;;;;;;;0.68;0.22;;;1.50;93.80;;;;;;5119345;27;20050;-83
2023/03/09 00:58:37;;;;;;;0.00;0.00;;;1.50;94.60;;;;;;5139969;27;20043;-83
2023/03/09 01:01:08;;;;;;;0.13;0.13;;;1.50;93.70;;;;;;5140353;27;20099;-83
2023/03/09 01:03:34;;;;;;;0.25;0.03;;;1.50;95.40;;;;;;5123007;27;20046;-83
2023/03/09 01:06:00;;;;;;;2.80;0.43;;;1.50;94.90;;;;;;5140404;27;20548;-83
2023/03/09 01:08:26;;;;;;;0.00;0.00;;;1.50;93.70;;;;;;5123949;27;20050;-83
2023/03/09 01:10:52;;;;;;;1.88;0.68;;;1.50;94.60;;;;;;5140221;27;20046;-83
2023/03/09 01:13:17;;;;;;;0.00;0.00;;;1.50;95.90;;;;;;5139981;27;20505;-83
2023/03/09 01:15:43;;;;;;;0.15;0.15;;;1.50;95.60;;;;;;5139992;27;20054;-83
2023/03/09 01:18:09;;;;;;;1.85;0.25;;;1.40;96.20;;;;;;5122760;27;20049;-83
2023/03/09 01:20:35;;;;;;;0.22;0.10;;;1.40;96.00;;;;;;5123055;27;20051;-83
2023/03/09 01:23:01;;;;;;;0.00;0.00;;;1.40;96.50;;;;;;5105399;27;20042;-83
2023/03/09 01:25:27;;;;;;;0.10;0.10;;;1.40;96.50;;;;;;5122678;27;20085;-83
2023/03/09 01:27:52;;;;;;;0.30;0.30;;;1.40;97.10;;;;;;5122688;27;20074;-83
2023/03/09 01:30:18;;;;;;;0.10;0.10;;;1.30;97.20;;;;;;5139601;27;20035;-83
2023/03/09 01:32:44;;;;;;;0.30;0.30;;;1.40;97.60;;;;;;5122618;27;20047;-83
2023/03/09 01:35:10;;;;;;;0.95;0.10;;;1.30;97.10;;;;;;5122522;27;20398;-83
2023/03/09 01:37:35;;;;;;;0.52;0.00;;;1.30;97.40;;;;;;5140068;27;20065;-83
2023/03/09 01:40:01;;;;;;;0.00;0.00;;;1.30;97.20;;;;;;5122449;27;20482;-83
2023/03/09 01:42:27;;;;;;;0.90;0.52;;;1.30;97.60;;;;;;5139554;27;20105;-83
2023/03/09 01:45:25;;;;;;;0.00;0.00;;;1.30;97.40;;;;;;5105355;27;20126;-83
2023/03/09 01:47:57;;;;;;;0.20;0.20;;;1.30;97.40;;;;;;5066314;27;20113;-84
2023/03/09 01:50:33;;;;;;;0.55;0.55;;;1.30;97.20;;;;;;5139326;27;20122;-83
2023/03/09 01:53:05;;;;;;;2.45;0.40;;;1.30;97.60;;;;;;5135265;27;20059;-83
2023/03/09 01:55:45;;;;;;;0.25;0.25;;;1.30;97.80;;;;;;5118795;27;20051;-83
2023/03/09 01:58:23;;;;;;;0.00;0.00;;;1.30;97.90;;;;;;5135957;27;20131;-82
2023/03/09 02:00:52;;;;;;;0.32;0.03;;;1.30;97.60;;;;;;5135896;27;20081;-82
2023/03/09 02:03:28;;;;;;;0.43;0.43;;;1.30;98.20;;;;;;5118577;27;20091;-83
2023/03/09 02:06:09;;;;;;;0.00;0.00;;;1.30;98.40;;;;;;5135367;27;20058;-83
2023/03/09 02:08:36;;;;;;;1.00;0.82;;;1.30;98.20;;;;;;5135788;27;20083;-83
2023/03/09 02:11:06;;;;;;;0.57;0.57;;;1.30;98.20;;;;;;5135586;27;20043;-83
2023/03/09 02:13:37;;;;;;;0.00;0.00;;;1.40;98.00;;;;;;5135502;27;20403;-83
2023/03/09 02:16:03;;;;;;;0.43;0.43;;;1.30;98.00;;;;;;5118326;27;20047;-83
2023/03/09 02:18:29;;;;;;;0.40;0.40;;;1.40;98.00;;;;;;5117910;27;20043;-83
2023/03/09 02:21:10;;;;;;;0.22;0.22;;;1.30;97.80;;;;;;5118119;27;20054;-83
2023/03/09 02:23:42;;;;;;;0.10;0.10;;;1.30;98.10;;;;;;5117932;27;20448;-83
2023/03/09 02:26:18;;;;;;;0.30;0.30;;;1.40;97.60;;;;;;5135503;27;20059;-83
2023/03/09 02:28:43;;;;;;;0.00;0.00;;;1.30;97.80;;;;;;5118254;27;20057;-82
2023/03/09 02:31:11;;;;;;;0.00;0.00;;;1.30;97.60;;;;;;5117759;27;20042;-83
2023/03/09 02:33:37;;;;;;;0.22;0.22;;;1.30;97.80;;;;;;5134454;27;20078;-83
2023/03/09 02:36:03;;;;;;;0.00;0.00;;;1.30;97.70;;;;;;5117854;27;20074;-82
2023/03/09 02:38:28;;;;;;;0.10;0.00;;;1.30;97.80;;;;;;5135235;27;20051;-83
2023/03/09 02:40:57;;;;;;;1.65;0.65;;;1.30;98.00;;;;;;5134968;27;20390;-83
2023/03/09 02:43:29;;;;;;;0.38;0.38;;;1.30;98.30;;;;;;5117740;27;20451;-83
2023/03/09 02:45:54;;;;;;;0.00;0.00;;;1.50;98.20;;;;;;5135503;27;20046;-83
2023/03/09 02:48:20;;;;;;;0.17;0.17;;;1.30;98.10;;;;;;5116848;27;20130;-83
2023/03/09 02:50:46;;;;;;;0.00;0.00;;;1.20;98.20;;;;;;5134684;27;20051;-83
2023/03/09 02:53:11;;;;;;;1.33;0.68;;;1.30;98.30;;;;;;5116926;27;20057;-83
2023/03/09 02:55:37;;;;;;;0.80;0.35;;;1.30;97.90;;;;;;5117473;27;20046;-83
2023/03/09 02:58:03;;;;;;;0.00;0.00;;;1.30;98.20;;;;;;5117598;27;20122;-82
2023/03/09 03:00:28;;;;;;;1.27;1.05;;;1.30;98.30;;;;;;5100710;27;20039;-83
2023/03/09 03:02:54;;;;;;;0.60;0.40;;;1.30;98.10;;;;;;5134577;27;20051;-83
2023/03/09 03:05:21;;;;;;;0.80;0.47;;;1.30;98.10;;;;;;5134144;27;20395;-83
2023/03/09 03:07:47;;;;;;;0.28;0.28;;;1.30;97.80;;;;;;5134564;27;20111;-83
2023/03/09 03:10:14;;;;;;;0.20;0.00;;;1.30;97.90;;;;;;5099845;27;20050;-83
2023/03/09 03:12:40;;;;;;;0.15;0.15;;;1.30;97.90;;;;;;5117217;27;20403;-82
2023/03/09 03:15:06;;;;;;;0.20;0.10;;;1.30;98.20;;;;;;5133720;27;20047;-83
2023/03/09 03:17:32;;;;;;;0.00;0.00;;;1.40;98.10;;;;;;5117528;27;20050;-82
2023/03/09 03:19:58;;;;;;;0.00;0.00;;;1.40;97.70;;;;;;5115875;27;20043;-83
2023/03/09 03:22:24;;;;;;;0.47;0.32;;;1.40;97.60;;;;;;5117109;27;20038;-82
2023/03/09 03:24:50;;;;;;;1.30;0.30;;;1.40;97.60;;;;;;5117051;27;20051;-82
2023/03/09 03:27:16;;;;;;;0.10;0.10;;;1.40;97.50;;;;;;5117149;27;20073;-82
2023/03/09 03:29:41;;;;;;;0.52;0.25;;;1.40;97.40;;;;;;5134017;27;20047;-82
2023/03/09 03:32:07;;;;;;;0.00;0.00;;;1.40;97.50;;;;;;5134047;27;20035;-82
2023/03/09 03:34:34;;;;;;;3.42;0.55;;;1.40;97.60;;;;;;5134195;27;20047;-82
2023/03/09 03:36:59;;;;;;;0.25;0.17;;;1.30;97.60;;;;;;5100131;27;20043;-81
2023/03/09 03:39:25;;;;;;;1.02;0.45;;;1.30;97.20;;;;;;5100090;27;20051;-82
2023/03/09 03:41:51;;;;;;;0.00;0.00;;;1.30;97.40;;;;;;5116825;27;20054;-82
2023/03/09 03:44:17;;;;;;;0.70;0.70;;;1.30;97.40;;;;;;5082995;27;20051;-82
2023/03/09 03:46:42;;;;;;;3.17;0.08;;;1.30;97.50;;;;;;5116762;27;20050;-82
2023/03/09 03:49:08;;;;;;;0.08;0.08;;;1.30;97.40;;;;;;5133090;27;20055;-82
2023/03/09 03:51:34;;;;;;;0.32;0.32;;;1.30;97.40;;;;;;5100860;27;20156;-81
2023/03/09 03:54:00;;;;;;;0.95;0.30;;;1.30;97.40;;;;;;5137648;27;20062;-81
2023/03/09 03:56:25;;;;;;;0.10;0.10;;;1.30;97.30;;;;;;5120074;27;20042;-82
2023/03/09 03:58:51;;;;;;;0.20;0.20;;;1.40;97.40;;;;;;5120078;27;20046;-82
2023/03/09 04:01:17;;;;;;;0.85;0.47;;;1.30;97.40;;;;;;5120557;27;20485;-81
2023/03/09 04:03:42;;;;;;;0.00;0.00;;;1.30;97.20;;;;;;5136870;27;20483;-81
2023/03/09 04:06:08;;;;;;;0.08;0.08;;;1.40;97.40;;;;;;5119877;27;20051;-81
2023/03/09 04:08:34;;;;;;;0.43;0.43;;;1.30;97.50;;;;;;5120055;27;20126;-81
2023/03/09 04:11:08;;;;;;;0.22;0.08;;;1.30;97.50;;;;;;5137597;27;20038;-81
2023/03/09 04:13:33;;;;;;;1.33;0.75;;;1.30;97.30;;;;;;5103239;27;20095;-81
2023/03/09 04:15:59;;;;;;;0.30;0.25;;;1.30;97.60;;;;;;5119852;27;20042;-81
2023/03/09 04:18:25;;;;;;;0.20;0.10;;;1.30;97.60;;;;;;5136273;27;20054;-81
2023/03/09 04:20:50;;;;;;;0.00;0.00;;;1.40;97.70;;;;;;5137175;27;20047;-81
2023/03/09 04:23:16;;;;;;;0.70;0.70;;;1.30;97.60;;;;;;5137077;27;20046;-81
2023/03/09 04:25:42;;;;;;;0.25;0.25;;;1.30;97.80;;;;;;5137156;27;20053;-81
2023/03/09 04:28:07;;;;;;;1.35;0.70;;;1.70;98.00;;;;;;5120259;27;20470;-81
2023/03/09 04:30:33;;;;;;;0.28;0.28;;;1.40;98.40;;;;;;5102647;27;20042;-81
2023/03/09 04:32:59;;;;;;;0.00;0.00;;;1.40;98.10;;;;;;5104043;27;20125;-81
2023/03/09 04:35:24;;;;;;;0.50;0.50;;;1.40;98.10;;;;;;5140828;27;20047;-81
2023/03/09 04:37:51;;;;;;;0.25;0.13;;;1.40;98.20;;;;;;5106699;27;20170;-80
2023/03/09 04:40:18;;;;;;;0.10;0.03;;;1.50;98.40;;;;;;5140691;27;20051;-80
2023/03/09 04:42:43;;;;;;;0.40;0.25;;;1.40;98.30;;;;;;5140475;27;20054;-81
2023/03/09 04:45:10;;;;;;;0.30;0.25;;;1.40;98.10;;;;;;5123777;27;20043;-81
2023/03/09 04:47:36;;;;;;;0.15;0.00;;;1.40;97.90;;;;;;5140614;27;20051;-81
2023/03/09 04:50:01;;;;;;;1.17;0.82;;;1.40;97.90;;;;;;5139645;27;20053;-81
2023/03/09 04:52:28;;;;;;;0.20;0.20;;;1.40;98.20;;;;;;5106010;27;20058;-81
2023/03/09 04:54:54;;;;;;;0.52;0.10;;;1.50;98.10;;;;;;5123967;27;20402;-82
2023/03/09 04:57:21;;;;;;;1.85;0.60;;;1.40;98.00;;;;;;5123244;27;20447;-81
2023/03/09 04:59:46;;;;;;;0.00;0.00;;;1.50;98.10;;;;;;5123291;27;20126;-81
2023/03/09 05:02:12;;;;;;;1.75;1.08;;;1.40;98.30;;;;;;5106186;27;20046;-81
2023/03/09 05:04:38;;;;;;;1.00;0.63;;;1.40;98.40;;;;;;5140284;27;20080;-81
2023/03/09 05:07:04;;;;;;;0.13;0.13;;;1.40;98.40;;;;;;5122794;27;20562;-81
2023/03/09 05:09:29;;;;;;;0.38;0.38;;;1.30;98.50;;;;;;5122989;27;20043;-81
2023/03/09 05:11:55;;;;;;;0.15;0.13;;;1.30;98.70;;;;;;5139438;27;20090;-81
2023/03/09 05:14:21;;;;;;;0.28;0.28;;;1.30;98.90;;;;;;5122572;27;20554;-81
2023/03/09 05:16:51;;;;;;;2.38;0.50;;;1.20;98.90;;;;;;5140542;27;20039;-81
2023/03/09 05:19:20;;;;;;;0.95;0.55;;;1.20;99.30;;;;;;5139703;27;20054;-81
2023/03/09 05:21:46;;;;;;;0.10;0.10;;;1.80;99.40;;;;;;5139821;27;20038;-81
2023/03/09 05:24:12;;;;;;;0.00;0.00;;;1.20;99.20;;;;;;5122633;27;20179;-81
2023/03/09 05:26:38;;;;;;;1.85;0.38;;;1.20;99.60;;;;;;5122697;27;20061;-81
2023/03/09 05:29:03;;;;;;;0.20;0.20;;;1.20;99.50;;;;;;5139517;27;20057;-81
2023/03/09 05:31:29;;;;;;;1.27;0.45;;;1.20;99.70;;;;;;5088414;27;20043;-80
2023/03/09 05:33:55;;;;;;;0.35;0.35;;;1.20;99.60;;;;;;5139808;27;20055;-81
2023/03/09 05:36:24;;;;;;;0.20;0.17;;;1.20;99.90;;;;;;5139589;27;20382;-80
2023/03/09 05:38:51;;;;;;;0.00;0.00;;;1.20;99.70;;;;;;5139374;27;20047;-81
2023/03/09 05:41:17;;;;;;;0.77;0.73;;;1.20;99.90;;;;;;5139339;27;20047;-81
2023/03/09 05:43:43;;;;;;;6.93;0.85;;;1.20;99.70;;;;;;5121731;27;20072;-81
2023/03/09 05:46:15;;;;;;;1.10;0.95;;;1.20;99.70;;;;;;5105322;27;20042;-81
2023/03/09 05:48:41;;;;;;;0.10;0.10;;;1.20;99.80;;;;;;5138658;27;20481;-81
2023/03/09 05:51:07;;;;;;;0.20;0.20;;;1.20;99.80;;;;;;5122029;27;20049;-81
2023/03/09 05:53:34;;;;;;;2.47;0.93;;;1.20;99.80;;;;;;5122116;27;20509;-80
2023/03/09 05:56:01;;;;;;;0.20;0.20;;;1.20;99.90;;;;;;5122180;27;20055;-80
2023/03/09 05:58:27;;;;;;;0.20;0.20;;;1.20;99.90;;;;;;5157450;27;20124;-81
2023/03/09 06:00:53;;;;;;;0.10;0.10;;;1.20;99.90;;;;;;5138940;27;20447;-80
2023/03/09 06:03:20;;;;;;;1.40;0.20;;;1.30;99.90;;;;;;5157375;27;20042;-81
2023/03/09 06:05:46;;;;;;;0.00;0.00;;;1.30;99.90;;;;;;5139038;27;20512;-81
2023/03/09 06:08:12;;;;;;;0.73;0.60;;;1.30;99.90;;;;;;5139279;27;20054;-81
2023/03/09 06:10:38;;;;;;;0.43;0.43;;;1.40;99.90;;;;;;5121695;27;20051;-81
2023/03/09 06:13:03;;;;;;;0.17;0.13;;;1.40;99.60;;;;;;5087928;27;20042;-81
2023/03/09 06:15:29;;;;;;;1.38;0.15;;;1.40;99.70;;;;;;5138796;27;20039;-81
2023/03/09 06:17:55;;;;;;;0.28;0.00;;;1.40;99.70;;;;;;5121441;27;20099;-80
2023/03/09 06:20:21;;;;;;;2.08;0.20;;;1.40;99.90;;;;;;5121107;27;20053;-81
2023/03/09 06:22:46;;;;;;;0.22;0.22;;;1.40;99.90;;;;;;5104696;27;20424;-80
2023/03/09 06:25:13;;;;;;;0.08;0.08;;;1.40;99.90;;;;;;5104506;27;20076;-80
2023/03/09 06:27:38;;;;;;;0.20;0.20;;;1.50;99.80;;;;;;5138576;27;20043;-80
2023/03/09 06:30:05;;;;;;;2.40;0.90;;;1.40;99.80;;;;;;5121368;27;20058;-81
2023/03/09 06:32:32;;;;;;;0.00;0.00;;;1.50;99.60;;;;;;5138610;27;20539;-80
2023/03/09 06:34:58;;;;;;;0.15;0.15;;;1.50;99.90;;;;;;5121043;27;20129;-80
2023/03/09 06:37:25;;;;;;;0.40;0.40;;;1.60;99.80;;;;;;5138529;27;20493;-81
2023/03/09 06:39:50;;;;;;;0.43;0.20;;;1.50;99.40;;;;;;5138465;27;20039;-81
2023/03/09 06:42:16;;;;;;;1.05;0.90;;;1.50;99.70;;;;;;5100528;27;20052;-81
2023/03/09 06:44:42;;;;;;;0.52;0.47;;;1.50;99.70;;;;;;5117597;27;20043;-81
2023/03/09 06:47:09;;;;;;;0.35;0.35;;;1.60;99.60;;;;;;5117966;27;20339;-80
2023/03/09 06:49:35;;;;;;;0.10;0.10;;;1.50;99.70;;;;;;5117121;27;20066;-81
2023/03/09 06:52:01;;;;;;;1.95;0.70;;;1.80;99.60;;;;;;5100101;27;20055;-81
2023/03/09 06:54:26;;;;;;;3.92;0.25;;;1.50;99.60;;;;;;5116822;27;20043;-81
2023/03/09 06:56:52;;;;;;;0.98;0.35;;;1.50;99.60;;;;;;5117424;27;20184;-81
2023/03/09 06:59:18;;;;;;;0.13;0.10;;;1.50;99.50;;;;;;5100467;27;20050;-85
2023/03/09 07:01:44;;;;;;;0.30;0.30;;;1.50;99.70;;;;;;5100164;27;20126;-81
2023/03/09 07:04:09;;;;;;;1.08;0.85;;;2.10;99.80;;;;;;5117419;27;20180;-81
2023/03/09 07:06:35;;;;;;;0.40;0.20;;;1.60;99.70;;;;;;5100500;27;20475;-81
2023/03/09 07:09:01;;;;;;;0.38;0.38;;;1.60;99.50;;;;;;5116997;27;20127;-81
2023/03/09 07:11:27;;;;;;;0.10;0.10;;;1.60;99.50;;;;;;5117094;27;20043;-81
2023/03/09 07:13:52;;;;;;;1.27;0.88;;;1.70;99.80;;;;;;5100240;27;20077;-83
2023/03/09 07:16:18;;;;;;;1.08;0.40;;;1.80;99.90;;;;;;5100191;27;20048;-85
2023/03/09 07:18:44;;;;;;;0.20;0.20;;;1.90;99.90;;;;;;5116269;27;20050;-84
2023/03/09 07:21:10;;;;;;;1.50;1.15;;;2.00;99.60;;;;;;5136947;27;20191;-82
2023/03/09 07:23:36;;;;;;;0.57;0.50;;;2.20;98.40;;;;;;5136168;27;20054;-82
2023/03/09 07:26:03;;;;;;;0.00;0.00;;;2.00;98.20;;;;;;5119906;27;20043;-82
2023/03/09 07:28:30;;;;;;;0.45;0.28;;;2.00;98.00;;;;;;5119226;27;20498;-81
2023/03/09 07:30:56;;;;;;;0.28;0.25;;;2.10;98.00;;;;;;5118820;27;20043;-81
2023/03/09 07:33:22;;;;;;;0.45;0.45;;;2.10;97.80;;;;;;5119245;27;20129;-81
2023/03/09 07:35:48;;;;;;;0.70;0.70;;;2.10;97.70;;;;;;5136728;27;20126;-81
2023/03/09 07:38:13;;;;;;;3.63;0.22;;;2.10;97.40;;;;;;5116390;27;20042;-82
2023/03/09 07:40:39;;;;;;;0.43;0.40;;;2.10;97.90;;;;;;5102387;27;20042;-82
2023/03/09 07:43:06;;;;;;;1.05;0.38;;;2.10;97.60;;;;;;5100502;27;20078;-82
2023/03/09 07:45:31;;;;;;;0.30;0.30;;;2.10;97.40;;;;;;5098503;27;20113;-82
2023/03/09 07:47:57;;;;;;;0.35;0.35;;;2.10;97.10;;;;;;5134577;27;20055;-82
2023/03/09 07:50:23;;;;;;;0.55;0.55;;;2.10;97.20;;;;;;5118576;27;20081;-84
2023/03/09 07:52:49;;;;;;;0.63;0.45;;;2.10;97.20;;;;;;5132027;27;20038;-83
2023/03/09 07:55:16;;;;;;;1.85;0.63;;;2.10;97.40;;;;;;5119298;27;20053;-79
2023/03/09 07:57:43;;;;;;;0.20;0.20;;;2.20;97.30;;;;;;5117146;27;20046;-80
2023/03/09 08:00:13;;;;;;;0.35;0.35;;;2.20;97.40;;;;;;5112234;28;20692;-84
2023/03/09 08:02:42;;;;;;;0.22;0.08;;;2.30;97.10;;;;;;5123095;27;20043;-83
2023/03/09 08:05:10;;;;;;;1.40;0.45;;;2.30;96.90;;;;;;5134614;27;20278;-81
2023/03/09 08:07:36;;;;;;;0.80;0.80;;;2.30;97.10;;;;;;5138685;27;20042;-82
2023/03/09 08:10:03;;;;;;;0.20;0.20;;;2.30;97.20;;;;;;5137458;27;20039;-82
2023/03/09 08:12:29;;;;;;;0.20;0.20;;;2.40;96.60;;;;;;5119048;27;20039;-82
2023/03/09 08:14:55;;;;;;;0.82;0.20;;;2.50;96.70;;;;;;5102011;27;20134;-82
2023/03/09 08:17:21;;;;;;;1.55;0.65;;;2.50;96.80;;;;;;5122299;27;20042;-81
2023/03/09 08:19:46;;;;;;;1.73;0.32;;;2.40;96.10;;;;;;5139555;27;20050;-82
2023/03/09 08:22:12;;;;;;;1.23;0.50;;;2.40;96.10;;;;;;5135915;27;20510;-81
2023/03/09 08:24:38;;;;;;;2.85;1.35;;;2.40;95.50;;;;;;5104317;27;20494;-82
2023/03/09 08:27:03;;;;;;;0.22;0.20;;;2.40;95.30;;;;;;5123644;27;20471;-82
2023/03/09 08:29:29;;;;;;;1.75;0.75;;;2.50;95.70;;;;;;5123916;27;20071;-81
2023/03/09 08:31:55;;;;;;;0.52;0.20;;;2.60;96.10;;;;;;5140758;27;20125;-81
2023/03/09 08:34:20;;;;;;;2.05;0.52;;;2.60;95.50;;;;;;5107087;27;20042;-81
2023/03/09 08:36:47;;;;;;;0.05;0.05;;;2.60;95.10;;;;;;5123766;27;20042;-81
2023/03/09 08:39:12;;;;;;;0.00;0.00;;;2.60;95.10;;;;;;5106742;27;20047;-81
2023/03/09 08:41:38;;;;;;;0.50;0.28;;;2.60;94.30;;;;;;5106524;27;20162;-81
2023/03/09 08:44:04;;;;;;;0.35;0.35;;;2.70;94.40;;;;;;5123485;27;20046;-81
2023/03/09 08:46:30;;;;;;;1.00;0.57;;;2.60;93.80;;;;;;5106393;27;20050;-81
2023/03/09 08:48:56;;;;;;;0.25;0.25;;;2.70;93.50;;;;;;5139895;27;20050;-82
2023/03/09 08:51:22;;;;;;;0.63;0.30;;;2.70;94.00;;;;;;5123224;27;20149;-81
2023/03/09 08:53:48;;;;;;;3.08;0.63;;;2.70;94.00;;;;;;5140411;27;20059;-82
2023/03/09 08:56:14;;;;;;;0.65;0.15;;;2.70;94.10;;;;;;5106091;27;20086;-81
2023/03/09 08:58:40;;;;;;;1.40;1.08;;;2.80;93.70;;;;;;5139952;27;20034;-81
2023/03/09 09:01:08;;;;;;;0.50;0.10;;;3.00;93.10;;;;;;5140138;27;20133;-81
2023/03/09 09:03:34;;;;;;;1.55;0.73;;;2.80;92.70;;;;;;5140209;27;20046;-81
2023/03/09 09:06:06;;;;;;;3.50;0.55;;;2.80;92.90;;;;;;5140139;27;20053;-81
2023/03/09 09:08:32;;;;;;;0.17;0.17;;;2.90;92.60;;;;;;5122684;27;20482;-81
2023/03/09 09:10:58;;;;;;;1.10;0.63;;;3.00;92.80;;;;;;5122716;27;20045;-81
2023/03/09 09:13:24;;;;;;;0.50;0.50;;;3.10;92.70;;;;;;5105788;27;20053;-81
2023/03/09 09:15:54;;;;;;;0.15;0.15;;;3.10;92.10;;;;;;5105487;27;20046;-81
2023/03/09 09:18:20;;;;;;;3.50;0.35;;;3.10;92.10;;;;;;5121611;27;20043;-82
2023/03/09 09:20:46;;;;;;;3.50;0.68;;;3.10;92.10;;;;;;5122825;27;20050;-81
2023/03/09 09:23:13;;;;;;;5.05;1.23;;;3.20;92.30;;;;;;5139734;27;20133;-81
2023/03/09 09:25:39;;;;;;;0.17;0.17;;;3.20;91.90;;;;;;5105983;27;20043;-81
2023/03/09 09:28:05;;;;;;;0.40;0.40;;;3.20;91.50;;;;;;5139708;27;20491;-81
2023/03/09 09:30:32;;;;;;;0.85;0.20;;;3.20;91.40;;;;;;5122476;27;20065;-81
2023/03/09 09:32:59;;;;;;;1.65;0.30;;;3.30;91.30;;;;;;5139723;27;20521;-81
2023/03/09 09:35:25;;;;;;;0.70;0.13;;;3.30;91.30;;;;;;5122636;27;20042;-81
2023/03/09 09:37:54;;;;;;;1.20;0.10;;;3.40;91.20;;;;;;5139384;27;20086;-81
2023/03/09 09:40:20;;;;;;;0.32;0.32;;;3.40;91.10;;;;;;5122957;27;20047;-81
2023/03/09 09:42:47;;;;;;;0.43;0.25;;;3.40;90.90;;;;;;5139519;27;20043;-81
2023/03/09 09:45:32;;;;;;;0.43;0.20;;;3.40;92.20;;;;;;5157483;27;20482;-81
2023/03/09 09:48:04;;;;;;;1.67;0.43;;;3.40;90.10;;;;;;5139545;27;20070;-81
2023/03/09 09:50:43;;;;;;;0.32;0.30;;;3.50;90.10;;;;;;5138533;27;20031;-81
2023/03/09 09:53:34;;;;;;;0.43;0.28;;;3.40;90.00;;;;;;5138865;27;20047;-80
2023/03/09 09:56:01;;;;;;;0.57;0.50;;;3.40;90.10;;;;;;5122990;27;20062;-81
2023/03/09 09:58:51;;;;;;;0.45;0.40;;;3.50;88.80;;;;;;5121921;27;20043;-81
2023/03/09 10:01:27;;;;;;;0.28;0.28;;;3.50;88.70;;;;;;5139309;27;20502;-81
2023/03/09 10:03:59;;;;;;;1.98;0.70;;;3.50;99.90;;;;;;5122049;27;20058;-81
2023/03/09 10:06:28;;;;;;;0.10;0.10;;;3.50;99.90;;;;;;5139044;27;20053;-81
2023/03/09 10:09:28;;;;;;;1.95;0.20;;;3.50;99.90;;;;;;5137475;27;20099;-81
2023/03/09 10:12:06;;;;;;;0.15;0.13;;;3.50;99.90;;;;;;5103615;27;20081;-81
2023/03/09 10:14:34;;;;;;;0.20;0.20;;;3.60;99.90;;;;;;5138379;27;20042;-82
2023/03/09 10:17:13;;;;;;;0.28;0.17;;;3.60;99.90;;;;;;5138416;27;20542;-82
2023/03/09 10:19:40;;;;;;;2.20;0.80;;;3.60;99.90;;;;;;5138490;27;20046;-82
2023/03/09 10:22:14;;;;;;;2.72;0.10;;;3.60;99.90;;;;;;5121654;27;20149;-81
2023/03/09 10:24:44;;;;;;;0.13;0.13;;;3.60;99.90;;;;;;5121595;27;20046;-81
2023/03/09 10:27:22;;;;;;;0.65;0.63;;;3.70;99.90;;;;;;5139540;27;20050;-80
2023/03/09 10:29:57;;;;;;;0.10;0.00;;;3.60;99.90;;;;;;5121328;27;20047;-81
2023/03/09 10:32:57;;;;;;;0.15;0.08;;;3.60;99.90;;;;;;5138855;27;20057;-80
2023/03/09 10:35:42;;;;;;;0.68;0.35;;;3.60;99.90;;;;;;5121264;27;20049;-80
2023/03/09 10:38:19;;;;;;;0.55;0.50;;;3.50;99.90;;;;;;5156858;27;20070;-81
2023/03/09 10:40:51;;;;;;;0.40;0.40;;;3.60;99.90;;;;;;5138513;27;20051;-81
2023/03/09 10:43:23;;;;;;;0.15;0.15;;;3.50;99.90;;;;;;5123831;27;20122;-81
2023/03/09 10:45:49;;;;;;;0.47;0.30;;;3.50;99.90;;;;;;5129760;27;20128;-80
2023/03/09 10:48:24;;;;;;;0.75;0.10;;;3.70;99.90;;;;;;5121398;27;20089;-80
2023/03/09 10:51:04;;;;;;;1.13;1.08;;;3.70;99.90;;;;;;5138055;27;20498;-80
2023/03/09 10:53:41;;;;;;;0.60;0.60;;;3.80;99.90;;;;;;5137462;27;20055;-80
2023/03/09 10:56:19;;;;;;;0.03;0.03;;;3.80;99.90;;;;;;5121867;27;20046;-80
2023/03/09 10:58:45;;;;;;;0.93;0.52;;;3.90;99.90;;;;;;5120901;27;20038;-80
2023/03/09 11:01:16;;;;;;;2.28;0.15;;;3.90;99.90;;;;;;5137922;27;20117;-81
2023/03/09 11:03:43;;;;;;;0.90;0.45;;;3.90;99.90;;;;;;5120814;27;20043;-81
2023/03/09 11:06:34;;;;;;;0.73;0.70;;;3.90;99.90;;;;;;5137898;27;20092;-81
2023/03/09 11:09:26;;;;;;;0.10;0.10;;;3.90;99.90;;;;;;5137722;27;20440;-81
2023/03/09 11:11:52;;;;;;;1.25;0.75;;;3.90;99.90;;;;;;5138160;27;20394;-81
2023/03/09 11:14:29;;;;;;;0.22;0.10;;;3.90;99.90;;;;;;5156050;27;20051;-81
2023/03/09 11:16:57;;;;;;;0.45;0.45;;;3.80;99.90;;;;;;5120529;27;20474;-81
2023/03/09 11:19:23;;;;;;;0.20;0.20;;;3.80;99.90;;;;;;5137336;27;20082;-82
2023/03/09 11:22:01;;;;;;;0.43;0.40;;;3.80;99.90;;;;;;5137702;27;20489;-81
2023/03/09 11:24:39;;;;;;;2.17;0.98;;;3.80;99.90;;;;;;5137548;27;20087;-81
2023/03/09 11:27:18;;;;;;;1.55;1.08;;;3.80;99.90;;;;;;5137726;27;20134;-82
2023/03/09 11:29:55;;;;;;;1.10;0.22;;;3.90;99.90;;;;;;5120178;27;20496;-81
2023/03/09 11:32:21;;;;;;;1.23;0.68;;;3.90;99.90;;;;;;5119708;27;20050;-81
2023/03/09 11:34:48;;;;;;;0.55;0.30;;;3.90;99.90;;;;;;5120341;27;20047;-81
2023/03/09 11:37:43;;;;;;;0.30;0.22;;;3.90;99.90;;;;;;5120232;27;20470;-81
2023/03/09 11:40:12;;;;;;;0.08;0.08;;;3.90;99.90;;;;;;5120548;27;20052;-81
2023/03/09 11:42:50;;;;;;;0.20;0.20;;;3.90;99.90;;;;;;5136571;27;20534;-81
2023/03/09 11:45:21;;;;;;;0.40;0.20;;;3.90;99.90;;;;;;5137755;27;20047;-81
2023/03/09 11:47:55;;;;;;;0.63;0.63;;;3.90;99.90;;;;;;5136647;27;20121;-81
2023/03/09 11:51:04;;;;;;;0.17;0.17;;;4.00;99.90;;;;;;5136451;27;20043;-81
2023/03/09 11:53:40;;;;;;;0.20;0.20;;;4.00;99.90;;;;;;5115329;27;20406;-81
2023/03/09 11:56:15;;;;;;;0.22;0.17;;;4.00;99.90;;;;;;5137048;27;20060;-81
2023/03/09 11:58:43;;;;;;;0.10;0.10;;;4.00;99.90;;;;;;5137333;27;20078;-81
2023/03/09 12:01:47;;;;;;;0.55;0.40;;;4.00;99.90;;;;;;5136708;27;20043;-81
2023/03/09 12:04:15;;;;;;;0.40;0.28;;;4.00;99.90;;;;;;5068598;27;20058;-81
2023/03/09 12:06:48;;;;;;;1.85;0.82;;;4.10;99.90;;;;;;5137263;27;20428;-84
2023/03/09 12:09:41;;;;;;;0.50;0.30;;;4.10;99.90;;;;;;5137313;27;20051;-81
2023/03/09 12:12:44;;;;;;;0.10;0.10;;;4.10;99.90;;;;;;5136699;27;20051;-82
2023/03/09 12:15:15;;;;;;;0.10;0.10;;;4.10;99.90;;;;;;5118851;27;20074;-82
2023/03/09 12:17:56;;;;;;;0.08;0.00;;;4.10;99.90;;;;;;5136682;27;20482;-81
2023/03/09 12:20:25;;;;;;;0.82;0.40;;;4.10;99.90;;;;;;5136609;27;20050;-81
2023/03/09 12:22:51;;;;;;;0.28;0.10;;;4.10;99.90;;;;;;5116052;28;20047;-82
2023/03/09 12:25:20;;;;;;;7.22;0.75;;;4.20;99.90;;;;;;5082675;28;20047;-81
2023/03/09 12:27:56;;;;;;;0.40;0.40;;;4.10;99.90;;;;;;5110960;27;20470;-82
2023/03/09 12:30:30;;;;;;;1.25;0.28;;;4.10;99.90;;;;;;5132699;27;20054;-81
2023/03/09 12:33:00;;;;;;;0.88;0.13;;;4.10;99.90;;;;;;5127909;28;20055;-81
2023/03/09 12:35:40;;;;;;;0.75;0.47;;;4.10;99.90;;;;;;5081963;28;20046;-81
2023/03/09 12:38:26;;;;;;;0.57;0.57;;;4.20;99.90;;;;;;5113175;27;20397;-81
2023/03/09 12:40:51;;;;;;;;;;;4.20;99.90;;;;;;5113867;27;20050;-81
2023/03/09 12:43:18;;;;;;;0.30;0.30;;;4.30;99.90;;;;;;5106488;27;19919;-81
2023/03/09 12:45:47;;;;;;;1.35;0.45;;;4.30;99.90;;;;;;5119370;27;20038;-81
2023/03/09 12:48:30;;;;;;;1.75;1.17;;;4.40;99.90;;;;;;5136485;27;20034;-81
2023/03/09 12:51:19;;;;;;;0.30;0.30;;;4.40;99.90;;;;;;5118521;27;20038;-81
2023/03/09 12:54:21;;;;;;;0.13;0.13;;;4.50;99.90;;;;;;5137067;27;20078;-81
2023/03/09 12:56:48;;;;;;;0.52;0.50;;;4.50;99.90;;;;;;5139741;27;20410;-81
2023/03/09 12:59:21;;;;;;;1.45;0.55;;;4.60;99.90;;;;;;5139945;27;20405;-81
2023/03/09 13:01:47;;;;;;;4.07;0.38;;;4.50;99.90;;;;;;5113795;27;20126;-81
2023/03/09 13:04:15;;;;;;;2.28;0.40;;;4.60;99.90;;;;;;5123198;27;20093;-81
2023/03/09 13:06:52;;;;;;;0.45;0.45;;;4.60;99.90;;;;;;5122989;27;20078;-80
2023/03/09 13:09:37;;;;;;;4.65;0.52;;;4.50;99.90;;;;;;5122922;27;20096;-81